aviador You're here:

ZBAA Decoded Metar

BEIJING in CHINA
Report Time2017-08-22 01:30:00
UTC Time2017-08-22 01:42:15
Flight Rules ifr IFR
Wind100° at 4 kt
W.Decomp.*RWY 18: 1.1 kt HW 3.8 kt LCW
RWY 19: 0.4 kt HW 4 kt LCW
W.Rank100° ranks 18
Current wind is above 100° avg. (3.8)
Visibility3500 m
Phenomena:Mist
Clouds:Scattered 040 Hf
Expected CloudBase > 1,600 ft AGL from Temp-Dew spread
CeilingNone
Temp29°C (ISA +14)
Dew Point25°C (79% RH)
Heat Index34.5°C
QNH1008 hPa
Density Alt2,313 ft
Elevation98 ft
Report Wrong Elevation
Raw Report
ZBAA 220130Z 10002MPS 050V160 3500 BR SCT040 29/25 Q1008 NOSIG=

Extra information for ZBAA:More info

Metar Taf Metar & Taf Last 4 Metars F.Rules Stats Wind Profile Meteogram Temp Stats Airport Information Weather charts Add Link Nearby VenuesMetar ALERT Operation Metar Decoded Social comments